createdAt,value
2018-06-07T00:00:04.304Z,158.90
2018-06-07T00:01:04.337Z,151.80
2018-06-07T00:02:04.387Z,170.10
2018-06-07T00:03:04.537Z,158.40
2018-06-07T00:04:04.470Z,166.90
2018-06-07T00:05:04.521Z,163.80
2018-06-07T00:06:04.563Z,169.40
2018-06-07T00:07:04.605Z,168.10
2018-06-07T00:08:04.634Z,166.70
2018-06-07T00:09:04.781Z,173.60
2018-06-07T00:10:04.718Z,181.90
2018-06-07T00:11:04.760Z,179.70
2018-06-07T00:12:04.811Z,200.70
2018-06-07T00:13:04.864Z,205.60
2018-06-07T00:14:04.990Z,185.50
2018-06-07T00:15:04.969Z,172.60
2018-06-07T00:16:04.995Z,184.00
2018-06-07T00:17:05.044Z,184.00
2018-06-07T00:18:05.082Z,185.90
2018-06-07T00:19:05.122Z,180.80
2018-06-07T00:20:05.187Z,176.00
2018-06-07T00:21:05.317Z,198.80
2018-06-07T00:22:05.246Z,183.30
2018-06-07T00:23:05.325Z,189.50
2018-06-07T00:24:05.346Z,188.30
2018-06-07T00:25:05.395Z,192.20
2018-06-07T00:26:05.421Z,189.60
2018-06-07T00:27:05.572Z,190.30
2018-06-07T00:28:05.522Z,183.90
2018-06-07T00:29:05.573Z,165.80
2018-06-07T00:30:05.599Z,159.40
2018-06-07T00:31:05.647Z,163.00
2018-06-07T00:32:05.691Z,171.80
2018-06-07T00:33:05.825Z,169.20
2018-06-07T00:34:05.781Z,174.30
2018-06-07T00:35:05.831Z,166.20
2018-06-07T00:36:05.873Z,169.50
2018-06-07T00:37:05.916Z,179.10
2018-06-07T00:38:06.055Z,167.90
2018-06-07T00:39:06.010Z,170.80
2018-06-07T00:40:06.058Z,177.70
2018-06-07T00:41:06.083Z,182.00
2018-06-07T00:42:06.114Z,187.40
2018-06-07T00:43:06.165Z,200.10
2018-06-07T00:44:06.211Z,215.00
2018-06-07T00:45:06.281Z,191.00
2018-06-07T00:46:06.315Z,195.50
2018-06-07T00:47:06.344Z,204.80
2018-06-07T00:48:06.379Z,199.80
2018-06-07T00:49:06.517Z,208.00
2018-06-07T00:50:06.496Z,232.80
2018-06-07T00:51:06.523Z,200.80
2018-06-07T00:52:06.554Z,209.90
2018-06-07T00:53:06.606Z,218.20
2018-06-07T00:54:06.674Z,186.20
2018-06-07T00:55:06.789Z,191.00
2018-06-07T00:56:06.733Z,202.40
2018-06-07T00:57:06.768Z,229.00
2018-06-07T00:58:06.828Z,227.10
2018-06-07T00:59:06.869Z,220.50
2018-06-07T01:00:06.919Z,227.00
2018-06-07T01:01:07.156Z,236.40
2018-06-07T01:02:07.006Z,232.90
2018-06-07T01:03:07.055Z,216.00
2018-06-07T01:04:07.079Z,225.20
2018-06-07T01:05:07.132Z,198.60
2018-06-07T01:06:07.256Z,213.40
2018-06-07T01:07:07.213Z,223.00
2018-06-07T01:08:07.268Z,223.10
2018-06-07T01:09:07.287Z,222.10
2018-06-07T01:10:07.355Z,211.60
2018-06-07T01:11:07.391Z,212.90
2018-06-07T01:12:07.661Z,220.30
2018-06-07T01:13:07.462Z,208.90
2018-06-07T01:14:07.552Z,224.30
2018-06-07T01:15:07.564Z,233.40
2018-06-07T01:16:07.612Z,225.10
2018-06-07T01:17:07.650Z,252.00
2018-06-07T01:18:07.792Z,238.20
2018-06-07T01:19:07.744Z,237.20
2018-06-07T01:20:07.781Z,213.00
2018-06-07T01:21:07.816Z,191.30
2018-06-07T01:22:07.894Z,203.00
2018-06-07T01:23:07.950Z,178.80
2018-06-07T01:24:08.053Z,184.80
2018-06-07T01:25:08.007Z,158.10
2018-06-07T01:26:08.042Z,162.80
2018-06-07T01:27:08.111Z,155.70
2018-06-07T01:28:08.131Z,184.60
2018-06-07T01:29:08.184Z,195.00
2018-06-07T01:30:08.236Z,168.10
2018-06-07T01:31:08.258Z,145.20
2018-06-07T01:32:08.314Z,157.40
2018-06-07T01:33:08.346Z,175.30
2018-06-07T01:34:08.489Z,166.00
2018-06-07T01:35:08.432Z,169.50
2018-06-07T01:36:08.475Z,141.90
2018-06-07T01:37:08.524Z,134.80
2018-06-07T01:38:08.560Z,145.00
2018-06-07T01:39:08.585Z,139.80
2018-06-07T01:40:08.752Z,137.40
2018-06-07T01:41:08.700Z,150.30
2018-06-07T01:42:08.734Z,159.70
2018-06-07T01:43:08.790Z,148.80
2018-06-07T01:44:08.828Z,157.20
2018-06-07T01:45:09.071Z,166.00
2018-06-07T01:46:08.900Z,157.60
2018-06-07T01:47:08.946Z,164.50
2018-06-07T01:48:09.003Z,142.30
2018-06-07T01:49:09.034Z,153.90
2018-06-07T01:50:09.069Z,156.60
2018-06-07T01:51:09.218Z,177.00
2018-06-07T01:52:09.177Z,170.20
2018-06-07T01:53:09.199Z,194.50
2018-06-07T01:54:09.248Z,198.60
2018-06-07T01:55:09.280Z,203.90
2018-06-07T01:56:09.331Z,195.50
2018-06-07T01:57:09.383Z,200.40
2018-06-07T01:58:09.514Z,194.90
2018-06-07T01:59:09.463Z,203.00
2018-06-07T02:00:09.522Z,206.40
2018-06-07T02:01:09.537Z,201.80
2018-06-07T02:02:09.598Z,208.40
2018-06-07T02:03:09.639Z,189.40
2018-06-07T02:04:09.782Z,191.70
2018-06-07T02:05:09.732Z,187.50
2018-06-07T02:06:09.802Z,185.60
2018-06-07T02:07:09.820Z,168.50
2018-06-07T02:08:09.862Z,184.70
2018-06-07T02:09:10.097Z,193.60
2018-06-07T02:10:09.936Z,180.80
2018-06-07T02:11:09.980Z,181.10
2018-06-07T02:12:10.034Z,177.00
2018-06-07T02:13:10.084Z,175.40
2018-06-07T02:14:10.122Z,183.90
2018-06-07T02:15:10.265Z,203.20
2018-06-07T02:16:10.207Z,193.00
2018-06-07T02:17:10.238Z,184.80
2018-06-07T02:18:10.311Z,184.40
2018-06-07T02:19:10.331Z,163.50
2018-06-07T02:20:10.592Z,149.00
2018-06-07T02:21:10.444Z,140.40
2018-06-07T02:22:10.452Z,122.40
2018-06-07T02:23:10.511Z,116.80
2018-06-07T02:24:10.548Z,112.00
2018-06-07T02:25:10.587Z,116.80
2018-06-07T02:26:10.753Z,108.70
2018-06-07T02:27:10.660Z,111.90
2018-06-07T02:28:10.707Z,110.70
2018-06-07T02:29:10.742Z,112.30
2018-06-07T02:30:10.819Z,141.10
2018-06-07T02:31:10.829Z,106.20
2018-06-07T02:32:10.891Z,103.40
2018-06-07T02:33:10.940Z,113.50
2018-06-07T02:34:10.985Z,114.80
2018-06-07T02:35:10.997Z,108.60
2018-06-07T02:36:11.151Z,109.40
2018-06-07T02:37:11.107Z,109.10
2018-06-07T02:38:11.158Z,108.00
2018-06-07T02:39:11.175Z,114.50
2018-06-07T02:40:11.216Z,110.20
2018-06-07T02:41:11.269Z,111.40
2018-06-07T02:42:11.316Z,108.30
2018-06-07T02:43:11.543Z,106.20
2018-06-07T02:44:11.383Z,108.00
2018-06-07T02:45:11.441Z,107.60
2018-06-07T02:46:11.480Z,110.70
2018-06-07T02:47:11.514Z,113.60
2018-06-07T02:48:11.679Z,110.70
2018-06-07T02:49:11.617Z,112.60
2018-06-07T02:50:11.655Z,109.50
2018-06-07T02:51:11.697Z,114.10
2018-06-07T02:52:11.757Z,106.70
2018-06-07T02:53:11.798Z,107.50
2018-06-07T02:54:11.829Z,113.20
2018-06-07T02:55:11.878Z,107.00
2018-06-07T02:56:11.917Z,111.60
2018-06-07T02:57:11.949Z,110.20
2018-06-07T02:58:12.207Z,101.10
2018-06-07T02:59:12.148Z,104.60
2018-06-07T03:00:12.093Z,102.20
2018-06-07T03:01:12.125Z,100.60
2018-06-07T03:02:12.155Z,99.90
2018-06-07T03:03:12.218Z,99.40
2018-06-07T03:04:12.251Z,106.60
2018-06-07T03:05:12.499Z,103.40
2018-06-07T03:06:12.343Z,98.80
2018-06-07T03:07:12.398Z,97.50
2018-06-07T03:08:12.433Z,104.40
2018-06-07T03:09:12.456Z,99.20
2018-06-07T03:10:12.607Z,117.80
2018-06-07T03:11:12.565Z,104.80
2018-06-07T03:12:12.608Z,99.40
2018-06-07T03:13:12.652Z,101.90
2018-06-07T03:14:12.683Z,99.30
2018-06-07T03:15:12.719Z,99.40
2018-06-07T03:16:12.765Z,95.60
2018-06-07T03:17:12.808Z,101.60
2018-06-07T03:18:12.864Z,101.10
2018-06-07T03:19:12.881Z,101.00
2018-06-07T03:20:12.966Z,101.20
2018-06-07T03:21:13.102Z,97.50
2018-06-07T03:22:13.008Z,96.90
2018-06-07T03:23:13.070Z,100.20
2018-06-07T03:24:13.104Z,94.60
2018-06-07T03:25:13.158Z,96.90
2018-06-07T03:26:13.184Z,96.50
2018-06-07T03:27:13.344Z,93.20
2018-06-07T03:28:13.311Z,99.90
2018-06-07T03:29:13.329Z,98.40
2018-06-07T03:30:13.366Z,100.30
2018-06-07T03:31:13.397Z,97.60
2018-06-07T03:32:13.445Z,90.80
2018-06-07T03:33:13.699Z,95.90
2018-06-07T03:34:13.546Z,97.00
2018-06-07T03:35:13.585Z,97.60
2018-06-07T03:36:13.640Z,104.50
2018-06-07T03:37:13.672Z,96.60
2018-06-07T03:38:13.798Z,104.00
2018-06-07T03:39:13.756Z,105.90
2018-06-07T03:40:13.821Z,116.40
2018-06-07T03:41:13.852Z,106.70
2018-06-07T03:42:13.891Z,103.90
2018-06-07T03:43:13.937Z,108.30
2018-06-07T03:44:14.058Z,109.70
2018-06-07T03:45:14.220Z,101.50
2018-06-07T03:46:14.058Z,102.80
2018-06-07T03:47:14.104Z,104.00
2018-06-07T03:48:14.167Z,105.80
2018-06-07T03:49:14.191Z,112.70
2018-06-07T03:50:14.222Z,116.00
2018-06-07T03:51:14.369Z,115.70
2018-06-07T03:52:14.317Z,111.80
2018-06-07T03:53:14.373Z,110.60
2018-06-07T03:54:14.407Z,117.90
2018-06-07T03:55:14.479Z,120.70
2018-06-07T03:56:14.512Z,113.60
2018-06-07T03:57:14.642Z,119.00
2018-06-07T03:58:14.583Z,115.50
2018-06-07T03:59:14.624Z,119.60
2018-06-07T04:00:14.680Z,117.80
2018-06-07T04:01:14.726Z,123.30
2018-06-07T04:02:14.780Z,119.70
2018-06-07T04:03:14.811Z,123.80
2018-06-07T04:04:14.842Z,127.50
2018-06-07T04:05:14.905Z,124.20
2018-06-07T04:06:14.984Z,122.70
2018-06-07T04:07:15.204Z,123.00
2018-06-07T04:08:15.007Z,122.60
2018-06-07T04:09:15.048Z,125.20
2018-06-07T04:10:15.123Z,129.50
2018-06-07T04:11:15.151Z,129.20
2018-06-07T04:12:15.302Z,126.60
2018-06-07T04:13:15.247Z,127.30
2018-06-07T04:14:15.294Z,127.30
2018-06-07T04:15:15.342Z,130.30
2018-06-07T04:16:15.379Z,123.70
2018-06-07T04:17:15.425Z,116.70
2018-06-07T04:18:15.450Z,122.00
2018-06-07T04:19:15.486Z,126.50
2018-06-07T04:20:15.533Z,123.90
2018-06-07T04:21:15.591Z,116.60
2018-06-07T04:22:15.833Z,117.80
2018-06-07T04:23:15.784Z,114.60
2018-06-07T04:24:15.716Z,116.60
2018-06-07T04:25:15.774Z,117.50
2018-06-07T04:26:15.800Z,113.10
2018-06-07T04:27:15.836Z,110.30
2018-06-07T04:28:15.891Z,114.50
2018-06-07T04:29:16.166Z,110.70
2018-06-07T04:30:15.973Z,100.30
2018-06-07T04:31:16.036Z,111.50
2018-06-07T04:32:16.060Z,117.50
2018-06-07T04:33:16.110Z,117.10
2018-06-07T04:34:16.163Z,115.10
2018-06-07T04:35:16.302Z,121.50
2018-06-07T04:36:16.244Z,119.00
2018-06-07T04:37:16.285Z,120.10
2018-06-07T04:38:16.328Z,125.50
2018-06-07T04:39:16.375Z,122.70
2018-06-07T04:40:16.428Z,119.70
2018-06-07T04:41:16.653Z,119.80
2018-06-07T04:42:16.503Z,126.60
2018-06-07T04:43:16.532Z,126.40
2018-06-07T04:44:16.577Z,124.40
2018-06-07T04:45:16.632Z,132.20
2018-06-07T04:46:16.674Z,123.80
2018-06-07T04:47:16.833Z,134.20
2018-06-07T04:48:16.776Z,129.90
2018-06-07T04:49:16.809Z,119.00
2018-06-07T04:50:16.862Z,116.70
2018-06-07T04:51:16.904Z,119.10
2018-06-07T04:52:16.925Z,122.70
2018-06-07T04:53:16.990Z,120.60
2018-06-07T04:54:17.010Z,126.40
2018-06-07T04:55:17.095Z,119.60
2018-06-07T04:56:17.111Z,121.50
2018-06-07T04:57:17.358Z,112.60
2018-06-07T04:58:17.191Z,99.20
2018-06-07T04:59:17.259Z,102.60
2018-06-07T05:00:17.291Z,103.00
2018-06-07T05:01:17.346Z,101.70
2018-06-07T05:02:17.494Z,103.50
2018-06-07T05:03:17.412Z,92.30
2018-06-07T05:04:17.454Z,97.50
2018-06-07T05:05:17.509Z,97.80
2018-06-07T05:06:17.542Z,94.70
2018-06-07T05:07:17.590Z,103.90
2018-06-07T05:08:17.840Z,107.50
2018-06-07T05:09:17.679Z,123.20
2018-06-07T05:10:17.722Z,109.40
2018-06-07T05:11:17.761Z,115.10
2018-06-07T05:12:17.812Z,114.10
2018-06-07T05:13:17.941Z,123.80
2018-06-07T05:14:17.916Z,116.20
2018-06-07T05:15:17.962Z,120.40
2018-06-07T05:16:18.000Z,118.00
2018-06-07T05:17:18.038Z,121.50
2018-06-07T05:18:18.076Z,119.10
2018-06-07T05:19:18.322Z,115.80
2018-06-07T05:20:18.141Z,123.20
2018-06-07T05:21:18.193Z,129.40
2018-06-07T05:22:18.252Z,145.90
2018-06-07T05:23:18.275Z,140.90
2018-06-07T05:24:18.308Z,157.90
2018-06-07T05:25:18.367Z,154.90
2018-06-07T05:26:18.450Z,183.90
2018-06-07T05:27:18.455Z,179.60
2018-06-07T05:28:18.500Z,172.20
2018-06-07T05:29:18.624Z,193.40
2018-06-07T05:30:18.794Z,208.90
2018-06-07T05:31:18.609Z,251.90
2018-06-07T05:32:18.678Z,250.70
2018-06-07T05:33:18.716Z,237.40
2018-06-07T05:34:18.763Z,237.80
2018-06-07T05:35:18.811Z,242.50
2018-06-07T05:36:18.949Z,255.60
2018-06-07T05:37:18.913Z,274.60
2018-06-07T05:38:18.935Z,253.00
2018-06-07T05:39:18.963Z,246.80
2018-06-07T05:40:19.004Z,253.00
2018-06-07T05:41:19.257Z,252.20
2018-06-07T05:42:19.094Z,260.10
2018-06-07T05:43:19.147Z,273.20
2018-06-07T05:44:19.170Z,287.20
2018-06-07T05:45:19.219Z,258.10
2018-06-07T05:46:19.263Z,265.50
2018-06-07T05:47:19.297Z,261.90
2018-06-07T05:48:19.356Z,322.30
2018-06-07T05:49:19.391Z,292.20
2018-06-07T05:50:19.443Z,299.60
2018-06-07T05:51:19.602Z,308.00
2018-06-07T05:52:19.531Z,289.10
2018-06-07T05:53:19.546Z,276.90
2018-06-07T05:54:19.600Z,264.60
2018-06-07T05:55:19.647Z,284.30
2018-06-07T05:56:19.877Z,294.60
2018-06-07T05:57:19.727Z,297.30
2018-06-07T05:58:19.785Z,291.10
2018-06-07T05:59:19.818Z,317.60
2018-06-07T06:00:19.922Z,302.80
2018-06-07T06:01:19.900Z,303.20
2018-06-07T06:02:19.922Z,301.40
2018-06-07T06:03:20.007Z,283.30
2018-06-07T06:04:20.048Z,294.00
2018-06-07T06:05:20.069Z,284.90
2018-06-07T06:06:20.207Z,289.50
2018-06-07T06:07:20.353Z,281.20
2018-06-07T06:08:20.176Z,279.50
2018-06-07T06:09:20.275Z,282.20
2018-06-07T06:10:20.290Z,264.20
2018-06-07T06:11:20.399Z,271.40
2018-06-07T06:12:20.391Z,277.40
2018-06-07T06:13:20.521Z,262.50
2018-06-07T06:14:20.458Z,258.40
2018-06-07T06:15:20.469Z,258.70
2018-06-07T06:16:20.533Z,261.80
2018-06-07T06:17:20.583Z,246.30
2018-06-07T06:18:20.810Z,247.90
2018-06-07T06:19:20.655Z,243.40
2018-06-07T06:20:20.700Z,265.60
2018-06-07T06:21:20.760Z,272.70
2018-06-07T06:22:20.771Z,276.60
2018-06-07T06:23:20.833Z,236.80
2018-06-07T06:24:20.959Z,274.20
2018-06-07T06:25:20.931Z,259.90
2018-06-07T06:26:20.945Z,277.30
2018-06-07T06:27:20.986Z,260.80
2018-06-07T06:28:21.044Z,262.90
2018-06-07T06:29:21.260Z,266.60
2018-06-07T06:30:21.103Z,282.90
2018-06-07T06:31:21.163Z,316.10
2018-06-07T06:32:21.204Z,279.90
2018-06-07T06:33:21.275Z,303.50
2018-06-07T06:34:21.286Z,268.40
2018-06-07T06:35:21.322Z,285.50
2018-06-07T06:36:21.366Z,292.40
2018-06-07T06:37:21.411Z,270.80
2018-06-07T06:38:21.459Z,253.20
2018-06-07T06:39:21.609Z,236.50
2018-06-07T06:40:21.738Z,279.00
2018-06-07T06:41:21.580Z,283.90
2018-06-07T06:42:21.609Z,283.30
2018-06-07T06:43:21.670Z,285.90
2018-06-07T06:44:21.708Z,289.40
2018-06-07T06:45:21.761Z,238.90
2018-06-07T06:46:21.896Z,249.30
2018-06-07T06:47:21.811Z,233.70
2018-06-07T06:48:21.874Z,226.50
2018-06-07T06:49:21.932Z,227.90
2018-06-07T06:50:21.952Z,226.60
2018-06-07T06:51:22.211Z,230.90
2018-06-07T06:52:22.032Z,222.20
2018-06-07T06:53:22.079Z,211.50
2018-06-07T06:54:22.135Z,238.40
2018-06-07T06:55:22.173Z,260.00
2018-06-07T06:56:22.188Z,233.40
2018-06-07T06:57:22.329Z,228.40
2018-06-07T06:58:22.275Z,254.20
2018-06-07T06:59:22.327Z,272.50
2018-06-07T07:00:22.373Z,225.60
2018-06-07T07:01:22.419Z,240.10
2018-06-07T07:02:22.461Z,245.40
2018-06-07T07:03:22.481Z,241.70
2018-06-07T07:04:22.555Z,241.50
2018-06-07T07:05:22.573Z,232.50
2018-06-07T07:06:22.640Z,239.60
2018-06-07T07:07:22.866Z,197.60
2018-06-07T07:08:22.701Z,209.40
2018-06-07T07:09:22.800Z,230.30
2018-06-07T07:10:22.803Z,240.90
2018-06-07T07:11:22.832Z,229.60
2018-06-07T07:12:22.972Z,224.30
2018-06-07T07:13:22.904Z,252.10
2018-06-07T07:14:22.970Z,233.90
2018-06-07T07:15:23.038Z,235.30
2018-06-07T07:16:23.069Z,232.40
2018-06-07T07:17:23.100Z,199.10
2018-06-07T07:18:23.378Z,226.30
2018-06-07T07:19:23.167Z,200.60
2018-06-07T07:20:23.217Z,216.40
2018-06-07T07:21:23.258Z,200.50
2018-06-07T07:22:23.303Z,272.50
2018-06-07T07:23:23.440Z,256.00
2018-06-07T07:24:23.393Z,230.00
2018-06-07T07:25:23.406Z,245.10
2018-06-07T07:26:23.469Z,272.00
2018-06-07T07:27:23.529Z,250.10
2018-06-07T07:28:23.539Z,300.00
2018-06-07T07:29:23.797Z,235.70
2018-06-07T07:30:23.645Z,289.60
2018-06-07T07:31:23.680Z,256.30
2018-06-07T07:32:23.727Z,359.30
2018-06-07T07:33:23.757Z,280.00
2018-06-07T07:34:23.808Z,257.10
2018-06-07T07:35:23.928Z,231.70
2018-06-07T07:36:23.884Z,258.50
2018-06-07T07:37:23.935Z,274.90
2018-06-07T07:38:23.982Z,251.20
2018-06-07T07:39:23.995Z,253.20
2018-06-07T07:40:24.056Z,270.70
2018-06-07T07:41:24.276Z,268.00
2018-06-07T07:42:24.126Z,264.60
2018-06-07T07:43:24.172Z,265.60
2018-06-07T07:44:24.204Z,251.40
2018-06-07T07:45:24.280Z,250.00
2018-06-07T07:46:24.320Z,248.80
2018-06-07T07:47:24.463Z,255.70
2018-06-07T07:48:24.399Z,234.00
2018-06-07T07:49:24.425Z,248.70
2018-06-07T07:50:24.482Z,245.70
2018-06-07T07:51:24.516Z,252.90
2018-06-07T07:52:24.557Z,236.50
2018-06-07T07:53:24.616Z,260.60
2018-06-07T07:54:24.635Z,250.40
2018-06-07T07:55:24.704Z,252.10
2018-06-07T07:56:24.711Z,253.00
2018-06-07T07:57:24.770Z,281.60
2018-06-07T07:58:24.926Z,255.10
2018-06-07T07:59:25.055Z,266.40
2018-06-07T08:00:24.911Z,274.10
2018-06-07T08:01:24.919Z,262.40
2018-06-07T08:02:24.976Z,243.50
2018-06-07T08:03:25.035Z,255.20
2018-06-07T08:04:25.170Z,281.20
2018-06-07T08:05:25.401Z,276.20
2018-06-07T08:06:25.130Z,285.60
2018-06-07T08:07:25.182Z,280.30
2018-06-07T08:08:25.230Z,282.60
2018-06-07T08:09:25.278Z,261.60
2018-06-07T08:10:25.499Z,266.60
2018-06-07T08:11:25.361Z,276.90
2018-06-07T08:12:25.431Z,282.90
2018-06-07T08:13:25.429Z,258.00
2018-06-07T08:14:25.489Z,272.00
2018-06-07T08:15:25.557Z,245.00
2018-06-07T08:16:25.662Z,256.00
2018-06-07T08:17:25.608Z,237.20
2018-06-07T08:18:25.635Z,251.20
2018-06-07T08:19:25.701Z,246.20
2018-06-07T08:20:25.742Z,225.00
2018-06-07T08:21:25.983Z,237.90
2018-06-07T08:22:25.826Z,229.20
2018-06-07T08:23:25.848Z,221.20
2018-06-07T08:24:25.905Z,214.00
2018-06-07T08:25:25.961Z,207.60
2018-06-07T08:26:25.994Z,213.70
2018-06-07T08:27:26.141Z,186.90
2018-06-07T08:28:26.074Z,199.90
2018-06-07T08:29:26.141Z,211.20
2018-06-07T08:30:26.163Z,212.00
2018-06-07T08:31:26.208Z,195.60
2018-06-07T08:32:26.259Z,207.40
2018-06-07T08:33:26.498Z,196.60
2018-06-07T08:34:26.346Z,212.60
2018-06-07T08:35:26.371Z,214.30
2018-06-07T08:36:26.422Z,216.30
2018-06-07T08:37:26.461Z,218.10
2018-06-07T08:38:26.505Z,205.80
2018-06-07T08:39:26.691Z,189.20
2018-06-07T08:40:26.615Z,193.80
2018-06-07T08:41:26.648Z,206.30
2018-06-07T08:42:26.658Z,200.00
2018-06-07T08:43:26.722Z,194.00
2018-06-07T08:44:26.744Z,195.50
2018-06-07T08:45:26.987Z,197.20
2018-06-07T08:46:26.828Z,191.10
2018-06-07T08:47:26.891Z,193.70
2018-06-07T08:48:26.938Z,187.20
2018-06-07T08:49:26.977Z,197.20
2018-06-07T08:50:27.006Z,205.30
2018-06-07T08:51:27.163Z,199.50
2018-06-07T08:52:27.118Z,210.30
2018-06-07T08:53:27.139Z,204.20
2018-06-07T08:54:27.200Z,215.90
2018-06-07T08:55:27.250Z,212.60
2018-06-07T08:56:27.279Z,216.20
2018-06-07T08:57:27.532Z,205.00
2018-06-07T08:58:27.348Z,216.50
2018-06-07T08:59:27.389Z,195.80
2018-06-07T09:00:27.633Z,197.80
2018-06-07T09:01:27.490Z,220.60
2018-06-07T09:02:27.532Z,210.00
2018-06-07T09:03:27.566Z,215.50
2018-06-07T09:04:27.615Z,216.00
2018-06-07T09:05:27.666Z,198.00
2018-06-07T09:06:27.704Z,188.70
2018-06-07T09:07:27.857Z,192.10
2018-06-07T09:08:27.801Z,191.20
2018-06-07T09:09:27.835Z,195.90
2018-06-07T09:10:27.876Z,177.40
2018-06-07T09:11:27.928Z,190.30
2018-06-07T09:12:28.155Z,191.20
2018-06-07T09:13:28.003Z,183.10
2018-06-07T09:14:28.035Z,195.60
2018-06-07T09:15:28.103Z,196.80
2018-06-07T09:16:28.124Z,186.60
2018-06-07T09:17:28.181Z,187.10
2018-06-07T09:18:28.230Z,178.70
2018-06-07T09:19:28.318Z,191.20
2018-06-07T09:20:28.304Z,174.00
2018-06-07T09:21:28.363Z,184.60
2018-06-07T09:22:28.486Z,192.50
2018-06-07T09:23:28.645Z,194.80
2018-06-07T09:24:28.477Z,187.10
2018-06-07T09:25:28.506Z,190.90
2018-06-07T09:26:28.570Z,196.80
2018-06-07T09:27:28.622Z,187.30
2018-06-07T09:28:28.654Z,175.80
2018-06-07T09:29:28.815Z,202.70
2018-06-07T09:30:28.740Z,190.60
2018-06-07T09:31:28.773Z,191.00
2018-06-07T09:32:28.813Z,196.10
2018-06-07T09:33:28.853Z,197.70
2018-06-07T09:34:29.136Z,181.60
2018-06-07T09:35:28.946Z,193.00
2018-06-07T09:36:28.996Z,199.50
2018-06-07T09:37:29.027Z,198.90
2018-06-07T09:38:29.093Z,196.10
2018-06-07T09:39:29.130Z,217.00
2018-06-07T09:40:29.275Z,185.80
2018-06-07T09:41:29.268Z,182.80
2018-06-07T09:42:29.240Z,189.70
2018-06-07T09:43:29.295Z,187.00
2018-06-07T09:44:29.338Z,181.20
2018-06-07T09:45:29.373Z,204.00
2018-06-07T09:46:29.625Z,183.10
2018-06-07T09:47:29.478Z,170.00
2018-06-07T09:48:29.506Z,182.90
2018-06-07T09:49:29.559Z,169.10
2018-06-07T09:50:29.602Z,169.20
2018-06-07T09:51:29.645Z,154.20
2018-06-07T09:52:29.663Z,153.30
2018-06-07T09:53:29.718Z,153.30
2018-06-07T09:54:29.758Z,161.60
2018-06-07T09:55:29.809Z,168.50
2018-06-07T09:56:29.844Z,189.20
2018-06-07T09:57:29.994Z,166.70
2018-06-07T09:58:29.925Z,160.10
2018-06-07T09:59:29.990Z,169.10
2018-06-07T10:00:30.028Z,166.20
2018-06-07T10:01:30.069Z,166.60
2018-06-07T10:02:30.204Z,171.70
2018-06-07T10:03:30.145Z,172.40
2018-06-07T10:04:30.191Z,166.40
2018-06-07T10:05:30.231Z,169.70
2018-06-07T10:06:30.274Z,182.40
2018-06-07T10:07:30.302Z,156.10
2018-06-07T10:08:30.361Z,192.10
2018-06-07T10:09:30.413Z,168.60
2018-06-07T10:10:30.430Z,188.90
2018-06-07T10:11:30.467Z,164.70
2018-06-07T10:12:30.539Z,165.50
2018-06-07T10:13:30.757Z,178.80
2018-06-07T10:14:30.634Z,164.10
2018-06-07T10:15:30.658Z,172.20
2018-06-07T10:16:30.700Z,168.80
2018-06-07T10:17:30.720Z,172.70
2018-06-07T10:18:30.772Z,174.80
2018-06-07T10:19:30.932Z,176.60
2018-06-07T10:20:30.849Z,173.90
2018-06-07T10:21:30.907Z,192.20
2018-06-07T10:22:30.989Z,174.70
2018-06-07T10:23:30.998Z,154.00
2018-06-07T10:24:31.039Z,180.70
2018-06-07T10:25:31.175Z,165.40
2018-06-07T10:26:31.118Z,158.70
2018-06-07T10:27:31.150Z,165.60
2018-06-07T10:28:31.194Z,153.40
2018-06-07T10:29:31.229Z,173.10
2018-06-07T10:30:31.300Z,156.20
2018-06-07T10:31:31.414Z,157.20
2018-06-07T10:32:31.357Z,148.50
2018-06-07T10:33:31.415Z,148.70
2018-06-07T10:34:31.442Z,152.10
2018-06-07T10:35:31.511Z,157.10
2018-06-07T10:36:31.553Z,173.30
2018-06-07T10:37:31.592Z,162.30
2018-06-07T10:38:31.623Z,163.30
2018-06-07T10:39:31.690Z,158.20
2018-06-07T10:40:31.722Z,167.60
2018-06-07T10:41:31.743Z,144.00
2018-06-07T10:42:31.815Z,185.30
2018-06-07T10:43:31.849Z,149.60
2018-06-07T10:44:31.885Z,184.50
2018-06-07T10:45:31.919Z,143.70
2018-06-07T10:46:32.083Z,157.90
2018-06-07T10:47:32.077Z,158.70
2018-06-07T10:48:32.055Z,149.00
2018-06-07T10:49:32.116Z,153.10
2018-06-07T10:50:32.130Z,241.20
2018-06-07T10:51:32.201Z,142.00
2018-06-07T10:52:32.234Z,201.50
2018-06-07T10:53:32.280Z,178.20
2018-06-07T10:54:32.298Z,139.40
2018-06-07T10:55:32.358Z,163.60
2018-06-07T10:56:32.398Z,185.10
2018-06-07T10:57:32.446Z,133.50
2018-06-07T10:58:32.604Z,138.30
2018-06-07T10:59:32.536Z,144.30
2018-06-07T11:00:32.556Z,140.00
2018-06-07T11:01:32.628Z,155.20
2018-06-07T11:02:32.667Z,144.90
2018-06-07T11:03:32.702Z,153.50
2018-06-07T11:04:32.897Z,149.50
2018-06-07T11:05:32.794Z,158.20
2018-06-07T11:06:32.828Z,163.70
2018-06-07T11:07:32.872Z,182.90
2018-06-07T11:08:32.912Z,163.70
2018-06-07T11:09:32.958Z,182.70
2018-06-07T11:10:33.092Z,176.20
2018-06-07T11:11:33.059Z,186.50
2018-06-07T11:12:33.089Z,215.70
2018-06-07T11:13:33.141Z,256.80
2018-06-07T11:14:33.227Z,271.20
2018-06-07T11:15:33.222Z,259.80
2018-06-07T11:16:33.484Z,230.40
2018-06-07T11:17:33.325Z,226.80
2018-06-07T11:18:33.353Z,219.70
2018-06-07T11:19:33.390Z,210.80
2018-06-07T11:20:33.443Z,235.90
2018-06-07T11:21:33.480Z,258.00
2018-06-07T11:22:33.524Z,266.10
2018-06-07T11:23:33.570Z,286.90
2018-06-07T11:24:33.629Z,282.70
2018-06-07T11:25:33.655Z,319.50
2018-06-07T11:26:33.735Z,318.70
2018-06-07T11:27:33.746Z,309.10
2018-06-07T11:28:33.816Z,292.20
2018-06-07T11:29:33.851Z,296.50
2018-06-07T11:30:33.905Z,312.80
2018-06-07T11:31:33.963Z,311.90
2018-06-07T11:32:33.979Z,266.10
2018-06-07T11:33:34.008Z,261.50
2018-06-07T11:34:34.059Z,246.60
2018-06-07T11:35:34.105Z,247.30
2018-06-07T11:36:34.153Z,246.40
2018-06-07T11:37:34.314Z,235.40
2018-06-07T11:38:34.239Z,221.70
2018-06-07T11:39:34.284Z,209.90
2018-06-07T11:40:34.351Z,192.20
2018-06-07T11:41:34.393Z,218.00
2018-06-07T11:42:34.417Z,208.40
2018-06-07T11:43:34.469Z,201.40
2018-06-07T11:44:34.495Z,182.70
2018-06-07T11:45:34.544Z,188.50
2018-06-07T11:46:34.604Z,224.30
2018-06-07T11:47:34.660Z,237.60
2018-06-07T11:48:34.685Z,224.10
2018-06-07T11:49:34.740Z,203.40
2018-06-07T11:50:34.771Z,196.80
2018-06-07T11:51:34.848Z,171.40
2018-06-07T11:52:34.861Z,171.40
2018-06-07T11:53:34.893Z,173.10
2018-06-07T11:54:34.956Z,173.70
2018-06-07T11:55:34.994Z,198.20
2018-06-07T11:56:35.038Z,197.70
2018-06-07T11:57:35.098Z,192.00
2018-06-07T11:58:35.113Z,184.20
2018-06-07T11:59:35.393Z,181.80
2018-06-07T12:00:35.232Z,204.40
2018-06-07T12:01:35.293Z,227.70
2018-06-07T12:02:35.314Z,252.60
2018-06-07T12:03:35.358Z,265.90
2018-06-07T12:04:35.409Z,261.80
2018-06-07T12:05:35.643Z,328.20
2018-06-07T12:06:35.477Z,409.50
2018-06-07T12:07:35.522Z,407.30
2018-06-07T12:08:35.577Z,411.90
2018-06-07T12:09:35.616Z,364.00
2018-06-07T12:10:35.867Z,366.40
2018-06-07T12:11:35.824Z,398.20
2018-06-07T12:12:35.833Z,382.90
2018-06-07T12:13:35.793Z,387.60
2018-06-07T12:14:35.868Z,393.20
2018-06-07T12:15:35.892Z,390.40
2018-06-07T12:16:35.946Z,363.70
2018-06-07T12:17:36.104Z,361.80
2018-06-07T12:18:36.056Z,322.90
2018-06-07T12:19:36.082Z,374.30
2018-06-07T12:20:36.128Z,323.50
2018-06-07T12:21:36.177Z,270.30
2018-06-07T12:22:36.209Z,248.20
2018-06-07T12:23:36.368Z,313.00
2018-06-07T12:24:36.336Z,283.60
2018-06-07T12:25:36.373Z,362.20
2018-06-07T12:26:36.402Z,401.70
2018-06-07T12:27:36.464Z,430.80
2018-06-07T12:28:36.517Z,437.60
2018-06-07T12:29:36.699Z,438.80